Time;durP1;ratioP1;P1;durP2;ratioP2;P2;SDS_P1;SDS_P2;PMS_P1;PMS_P2;Temp;Humidity;BMP_temperature;BMP_pressure;BME280_temperature;BME280_humidity;BME280_pressure;Samples;Min_cycle;Max_cycle;Signal;HPM_P1;HPM_P2
2022/06/17 00:00:19;;;;;;;;;;;19.20;99.90;;;;;;5072142;28;19908;-56
2022/06/17 00:02:46;;;;;;;;;;;19.30;99.90;;;;;;5071961;28;19915;-55
2022/06/17 00:05:11;;;;;;;;;;;19.30;99.90;;;;;;5072309;28;20388;-56
2022/06/17 00:07:38;;;;;;;;;;;19.20;99.90;;;;;;5071822;28;19909;-58
2022/06/17 00:10:05;;;;;;;;;;;19.00;99.90;;;;;;5072446;28;19913;-55
2022/06/17 00:12:31;;;;;;;;;;;19.10;99.90;;;;;;5072296;28;19909;-55
2022/06/17 00:15:11;;;;;;;;;;;19.00;99.90;;;;;;5071885;28;19936;-56
2022/06/17 00:17:37;;;;;;;;;;;18.90;99.90;;;;;;5072428;28;19916;-56
2022/06/17 00:20:07;;;;;;;;;;;18.90;99.90;;;;;;5072393;28;19967;-56
2022/06/17 00:22:32;;;;;;;;;;;18.90;99.90;;;;;;5072166;28;19908;-55
2022/06/17 00:24:58;;;;;;;;;;;19.00;99.90;;;;;;5071962;28;19959;-55
2022/06/17 00:27:23;;;;;;;;;;;19.20;99.90;;;;;;5072307;28;20307;-55
2022/06/17 00:29:49;;;;;;;;;;;19.10;99.90;;;;;;5072184;28;19916;-56
2022/06/17 00:32:14;;;;;;;;;;;19.00;99.90;;;;;;5072045;28;19974;-56
2022/06/17 00:34:40;;;;;;;;;;;19.00;99.90;;;;;;5072056;28;19916;-56
2022/06/17 00:37:11;;;;;;;;;;;19.00;99.90;;;;;;5071782;28;19920;-56
2022/06/17 00:39:37;;;;;;;;;;;19.00;99.90;;;;;;5071827;28;19916;-55
2022/06/17 00:42:07;;;;;;;;;;;18.70;99.90;;;;;;5075094;28;19913;-56
2022/06/17 00:44:38;;;;;;;;;;;18.60;99.90;;;;;;5075327;28;19919;-57
2022/06/17 00:47:14;;;;;;;;;;;18.60;99.90;;;;;;5075347;28;20436;-55
2022/06/17 00:49:49;;;;;;;;;;;18.70;99.90;;;;;;5075389;28;19908;-56
2022/06/17 00:52:26;;;;;;;;;;;18.60;99.90;;;;;;5076099;28;19983;-57
2022/06/17 00:55:05;;;;;;;;;;;18.60;99.90;;;;;;5077096;28;19909;-55
2022/06/17 00:57:31;;;;;;;;;;;18.60;99.90;;;;;;5075226;28;19916;-56
2022/06/17 01:00:00;;;;;;;;;;;18.50;99.90;;;;;;5075194;28;19916;-56
2022/06/17 01:02:27;;;;;;;;;;;18.50;99.90;;;;;;5075018;28;20448;-55
2022/06/17 01:04:53;;;;;;;;;;;18.50;99.90;;;;;;5074574;28;19916;-56
2022/06/17 01:07:21;;;;;;;;;;;18.50;99.90;;;;;;5074696;28;20205;-56
2022/06/17 01:09:58;;;;;;;;;;;18.40;99.90;;;;;;5074580;28;19915;-56
2022/06/17 01:12:26;;;;;;;;;;;18.40;99.90;;;;;;5074540;28;20041;-56
2022/06/17 01:14:51;;;;;;;;;;;18.40;99.90;;;;;;5074604;28;19916;-56
2022/06/17 01:17:18;;;;;;;;;;;18.50;99.90;;;;;;5074556;28;20276;-55
2022/06/17 01:19:48;;;;;;;;;;;18.60;99.90;;;;;;5074702;28;19909;-56
2022/06/17 01:22:26;;;;;;;;;;;18.60;99.90;;;;;;5074296;28;19947;-56
2022/06/17 01:25:12;;;;;;;;;;;18.60;99.90;;;;;;5074820;28;20356;-56
2022/06/17 01:27:39;;;;;;;;;;;18.60;99.90;;;;;;5067034;28;19913;-55
2022/06/17 01:30:05;;;;;;;;;;;18.70;99.90;;;;;;5073601;28;20012;-58
2022/06/17 01:32:34;;;;;;;;;;;18.60;99.90;;;;;;5074418;28;19919;-56
2022/06/17 01:35:00;;;;;;;;;;;18.60;99.90;;;;;;5074612;28;19909;-56
2022/06/17 01:37:27;;;;;;;;;;;18.40;99.90;;;;;;5074158;28;19912;-56
2022/06/17 01:39:54;;;;;;;;;;;18.40;99.90;;;;;;5074678;28;19915;-56
2022/06/17 01:42:19;;;;;;;;;;;18.50;99.90;;;;;;5074051;28;19999;-56
2022/06/17 01:44:45;;;;;;;;;;;18.60;99.90;;;;;;5074061;28;19944;-56
2022/06/17 01:47:12;;;;;;;;;;;18.50;99.90;;;;;;5073925;28;19916;-56
2022/06/17 01:49:40;;;;;;;;;;;18.50;99.90;;;;;;5074054;28;20340;-56
2022/06/17 01:52:06;;;;;;;;;;;18.70;99.90;;;;;;5074271;28;20296;-56
2022/06/17 01:54:33;;;;;;;;;;;18.80;99.90;;;;;;5074122;28;19913;-56
2022/06/17 01:57:00;;;;;;;;;;;19.00;99.90;;;;;;5073669;28;20444;-56
2022/06/17 01:59:29;;;;;;;;;;;19.20;99.90;;;;;;5073995;28;20383;-56
2022/06/17 02:01:55;;;;;;;;;;;19.10;99.90;;;;;;5073756;28;19908;-57
2022/06/17 02:04:23;;;;;;;;;;;19.00;99.90;;;;;;5073562;28;19947;-57
2022/06/17 02:06:56;;;;;;;;;;;18.90;99.90;;;;;;5073462;28;19913;-56
2022/06/17 02:09:21;;;;;;;;;;;18.80;99.90;;;;;;5074016;28;19908;-56
2022/06/17 02:11:47;;;;;;;;;;;18.60;99.90;;;;;;5073597;28;19978;-57
2022/06/17 02:14:13;;;;;;;;;;;18.50;99.90;;;;;;5073609;28;19936;-56
2022/06/17 02:16:44;;;;;;;;;;;18.50;99.90;;;;;;5073046;28;20280;-56
2022/06/17 02:19:09;;;;;;;;;;;18.30;99.90;;;;;;5073447;28;19934;-56
2022/06/17 02:21:40;;;;;;;;;;;18.30;99.90;;;;;;5073441;28;19908;-56
2022/06/17 02:24:06;;;;;;;;;;;18.40;99.90;;;;;;5072880;28;19919;-56
2022/06/17 02:26:33;;;;;;;;;;;18.40;99.90;;;;;;5073412;28;19908;-57
2022/06/17 02:29:00;;;;;;;;;;;18.50;99.90;;;;;;5073318;28;20365;-57
2022/06/17 02:31:26;;;;;;;;;;;18.50;99.90;;;;;;5073085;28;19913;-56
2022/06/17 02:33:53;;;;;;;;;;;18.40;99.90;;;;;;5072443;28;20285;-56
2022/06/17 02:36:27;;;;;;;;;;;18.50;99.90;;;;;;5073121;28;19961;-56
2022/06/17 02:38:53;;;;;;;;;;;18.40;99.90;;;;;;5073904;28;19908;-56
2022/06/17 02:41:19;;;;;;;;;;;18.50;99.90;;;;;;5072832;28;19908;-56
2022/06/17 02:44:03;;;;;;;;;;;18.50;99.90;;;;;;5072814;28;19909;-56
2022/06/17 02:46:31;;;;;;;;;;;18.50;99.90;;;;;;5072536;28;19916;-55
2022/06/17 02:48:59;;;;;;;;;;;18.50;99.90;;;;;;5072972;28;19909;-55
2022/06/17 02:51:27;;;;;;;;;;;18.40;99.90;;;;;;5073445;28;19916;-56
2022/06/17 02:53:53;;;;;;;;;;;18.40;99.90;;;;;;5072874;28;19912;-57
2022/06/17 02:56:21;;;;;;;;;;;18.40;99.90;;;;;;5072609;28;19974;-56
2022/06/17 02:58:56;;;;;;;;;;;18.50;99.90;;;;;;5072102;28;19909;-56
2022/06/17 03:01:23;;;;;;;;;;;18.40;99.90;;;;;;5072515;28;19912;-56
2022/06/17 03:03:49;;;;;;;;;;;18.40;99.90;;;;;;5072363;28;19908;-56
2022/06/17 03:06:19;;;;;;;;;;;18.50;99.90;;;;;;5072408;28;19916;-57
2022/06/17 03:08:49;;;;;;;;;;;18.50;99.90;;;;;;5072652;28;20346;-57
2022/06/17 03:11:15;;;;;;;;;;;18.60;99.90;;;;;;5072929;28;19916;-56
2022/06/17 03:13:47;;;;;;;;;;;18.70;99.90;;;;;;5072393;28;19940;-56
2022/06/17 03:16:14;;;;;;;;;;;18.70;99.90;;;;;;5071757;28;19924;-56
2022/06/17 03:18:40;;;;;;;;;;;18.70;99.90;;;;;;5072662;28;19912;-56
2022/06/17 03:21:06;;;;;;;;;;;18.70;99.90;;;;;;5072709;28;20248;-56
2022/06/17 03:23:43;;;;;;;;;;;18.70;99.90;;;;;;5072323;28;19962;-56
2022/06/17 03:26:11;;;;;;;;;;;18.60;99.90;;;;;;5072084;28;19915;-56
2022/06/17 03:28:42;;;;;;;;;;;18.60;99.90;;;;;;5072135;28;19909;-56
2022/06/17 03:31:11;;;;;;;;;;;18.70;99.90;;;;;;5072823;28;19908;-57
2022/06/17 03:33:45;;;;;;;;;;;18.70;99.90;;;;;;5072337;28;19941;-56
2022/06/17 03:36:14;;;;;;;;;;;18.50;99.90;;;;;;5072637;28;19985;-58
2022/06/17 03:38:47;;;;;;;;;;;18.40;99.90;;;;;;5073025;28;20015;-56
2022/06/17 03:41:18;;;;;;;;;;;18.40;99.90;;;;;;5073202;28;20416;-56
2022/06/17 03:43:52;;;;;;;;;;;18.50;99.90;;;;;;5072571;28;19908;-56
2022/06/17 03:46:20;;;;;;;;;;;18.60;99.90;;;;;;5072534;28;19982;-56
2022/06/17 03:48:48;;;;;;;;;;;18.50;99.90;;;;;;5072415;28;20395;-55
2022/06/17 03:51:17;;;;;;;;;;;18.30;99.90;;;;;;5072755;28;19908;-56
2022/06/17 03:53:44;;;;;;;;;;;18.30;99.90;;;;;;5073096;28;19996;-57
2022/06/17 03:56:16;;;;;;;;;;;18.30;99.90;;;;;;5072720;28;19908;-56
2022/06/17 03:58:43;;;;;;;;;;;18.10;99.90;;;;;;5072505;28;19920;-56
2022/06/17 04:01:27;;;;;;;;;;;18.20;99.90;;;;;;5072537;28;19915;-56
2022/06/17 04:03:54;;;;;;;;;;;18.20;99.90;;;;;;5072479;28;19912;-56
2022/06/17 04:06:21;;;;;;;;;;;18.30;99.90;;;;;;5072376;28;19951;-57
2022/06/17 04:08:50;;;;;;;;;;;18.40;99.90;;;;;;5072306;28;19961;-56
2022/06/17 04:11:16;;;;;;;;;;;18.40;99.90;;;;;;5072456;28;20617;-56
2022/06/17 04:13:42;;;;;;;;;;;18.40;99.90;;;;;;5072257;28;19908;-56
2022/06/17 04:16:26;;;;;;;;;;;18.50;99.90;;;;;;5074427;28;19955;-56
2022/06/17 04:18:52;;;;;;;;;;;18.60;99.90;;;;;;5076776;28;19919;-56
2022/06/17 04:21:17;;;;;;;;;;;18.60;99.90;;;;;;5076700;28;19909;-57
2022/06/17 04:23:47;;;;;;;;;;;18.70;99.90;;;;;;5076787;28;20396;-56
2022/06/17 04:26:21;;;;;;;;;;;18.70;99.90;;;;;;5076061;28;19911;-56
2022/06/17 04:28:52;;;;;;;;;;;18.80;99.90;;;;;;5075280;28;19910;-56
2022/06/17 04:31:20;;;;;;;;;;;18.80;99.90;;;;;;5075631;28;19908;-56
2022/06/17 04:33:48;;;;;;;;;;;18.90;99.90;;;;;;5075367;28;19916;-55
2022/06/17 04:36:28;;;;;;;;;;;18.90;99.90;;;;;;5075248;28;19908;-55
2022/06/17 04:39:06;;;;;;;;;;;18.90;99.90;;;;;;5074977;28;19939;-56
2022/06/17 04:41:34;;;;;;;;;;;18.80;99.90;;;;;;5076041;28;19909;-56
2022/06/17 04:44:02;;;;;;;;;;;18.80;99.90;;;;;;5075742;28;19912;-56
2022/06/17 04:46:34;;;;;;;;;;;18.80;99.90;;;;;;5075641;28;19916;-56
2022/06/17 04:49:00;;;;;;;;;;;18.80;99.90;;;;;;5074270;28;19958;-55
2022/06/17 04:51:28;;;;;;;;;;;18.80;99.90;;;;;;5074359;28;19909;-55
2022/06/17 04:53:54;;;;;;;;;;;18.70;99.90;;;;;;5074225;28;20266;-56
2022/06/17 04:56:27;;;;;;;;;;;18.80;99.90;;;;;;5073849;28;20391;-56
2022/06/17 04:58:53;;;;;;;;;;;18.80;99.90;;;;;;5074095;28;19939;-55
2022/06/17 05:01:20;;;;;;;;;;;18.80;99.90;;;;;;5074347;28;19917;-56
2022/06/17 05:03:45;;;;;;;;;;;18.80;99.90;;;;;;5074353;28;20281;-56
2022/06/17 05:06:11;;;;;;;;;;;18.80;99.90;;;;;;5073771;28;19934;-56
2022/06/17 05:08:38;;;;;;;;;;;18.90;99.90;;;;;;5073873;28;19915;-56
2022/06/17 05:11:12;;;;;;;;;;;18.80;99.90;;;;;;5074356;28;19920;-56
2022/06/17 05:13:43;;;;;;;;;;;18.70;99.90;;;;;;5073660;28;20323;-56
2022/06/17 05:16:12;;;;;;;;;;;18.80;99.90;;;;;;5073497;28;20393;-56
2022/06/17 05:18:38;;;;;;;;;;;18.90;99.90;;;;;;5072818;28;20337;-56
2022/06/17 05:21:03;;;;;;;;;;;19.00;99.90;;;;;;5074222;28;19940;-56
2022/06/17 05:23:29;;;;;;;;;;;19.10;99.90;;;;;;5073605;28;19913;-56
2022/06/17 05:25:54;;;;;;;;;;;19.20;99.90;;;;;;5073192;28;19923;-57
2022/06/17 05:28:21;;;;;;;;;;;19.20;99.90;;;;;;5072060;28;20538;-56
2022/06/17 05:30:51;;;;;;;;;;;19.30;99.90;;;;;;5073358;28;19915;-56
2022/06/17 05:33:17;;;;;;;;;;;19.20;99.90;;;;;;5073377;28;19908;-56
2022/06/17 05:35:43;;;;;;;;;;;19.10;99.90;;;;;;5073091;28;20395;-56
2022/06/17 05:38:08;;;;;;;;;;;19.00;99.90;;;;;;5073081;28;19912;-57
2022/06/17 05:40:34;;;;;;;;;;;19.00;99.90;;;;;;5073197;28;19909;-55
2022/06/17 05:43:00;;;;;;;;;;;19.00;99.90;;;;;;5073043;28;19908;-55
2022/06/17 05:45:27;;;;;;;;;;;19.00;99.90;;;;;;5073180;28;19958;-55
2022/06/17 05:47:52;;;;;;;;;;;18.90;99.90;;;;;;5073030;28;19915;-55
2022/06/17 05:50:18;;;;;;;;;;;18.90;99.90;;;;;;5072250;28;20381;-55
2022/06/17 05:52:51;;;;;;;;;;;18.90;99.90;;;;;;5072906;28;20567;-55
2022/06/17 05:55:17;;;;;;;;;;;18.90;99.90;;;;;;5081176;28;19909;-55
2022/06/17 05:57:43;;;;;;;;;;;18.90;99.90;;;;;;5090019;28;19912;-55
2022/06/17 06:00:09;;;;;;;;;;;18.90;99.90;;;;;;5081222;28;19913;-56
2022/06/17 06:02:34;;;;;;;;;;;19.00;99.90;;;;;;5078489;28;19919;-55
2022/06/17 06:05:00;;;;;;;;;;;19.10;99.90;;;;;;5081863;28;20058;-55
2022/06/17 06:07:25;;;;;;;;;;;19.20;99.90;;;;;;5075444;28;19958;-55
2022/06/17 06:09:51;;;;;;;;;;;19.40;99.90;;;;;;5071232;28;19920;-55
2022/06/17 06:12:18;;;;;;;;;;;19.50;99.90;;;;;;5070839;28;19912;-55
2022/06/17 06:14:43;;;;;;;;;;;19.60;99.90;;;;;;5070642;28;19981;-55
2022/06/17 06:17:10;;;;;;;;;;;19.70;99.90;;;;;;5073855;28;19928;-55
2022/06/17 06:19:36;;;;;;;;;;;19.90;99.90;;;;;;5071985;28;19912;-54
2022/06/17 06:22:01;;;;;;;;;;;20.00;99.90;;;;;;5069468;28;19971;-55
2022/06/17 06:24:27;;;;;;;;;;;20.10;99.90;;;;;;5066449;28;19974;-55
2022/06/17 06:26:52;;;;;;;;;;;20.20;99.90;;;;;;5070870;28;19927;-55
2022/06/17 06:29:18;;;;;;;;;;;20.20;99.90;;;;;;5068490;28;19912;-55
2022/06/17 06:31:43;;;;;;;;;;;20.30;99.90;;;;;;5059373;28;19997;-55
2022/06/17 06:34:10;;;;;;;;;;;20.20;99.90;;;;;;5062766;28;19912;-56
2022/06/17 06:36:36;;;;;;;;;;;20.40;99.90;;;;;;5065053;28;20377;-56
2022/06/17 06:39:02;;;;;;;;;;;20.70;99.90;;;;;;5068631;28;19912;-56
2022/06/17 06:41:27;;;;;;;;;;;21.40;99.90;;;;;;5063407;28;20108;-56
2022/06/17 06:43:53;;;;;;;;;;;22.30;99.90;;;;;;5069415;28;20278;-55
2022/06/17 06:46:19;;;;;;;;;;;23.20;99.90;;;;;;5069122;28;19978;-55
2022/06/17 06:48:45;;;;;;;;;;;23.50;99.90;;;;;;5069890;28;20335;-55
2022/06/17 06:51:11;;;;;;;;;;;23.80;99.90;;;;;;5070861;28;19920;-55
2022/06/17 06:53:36;;;;;;;;;;;23.90;99.90;;;;;;5064284;28;19921;-55
2022/06/17 06:56:03;;;;;;;;;;;24.20;99.90;;;;;;5065723;28;20376;-56
2022/06/17 06:58:28;;;;;;;;;;;24.60;99.60;;;;;;5070289;28;20610;-56
2022/06/17 07:00:55;;;;;;;;;;;25.10;97.70;;;;;;5069409;28;19947;-56
2022/06/17 07:03:21;;;;;;;;;;;25.50;96.20;;;;;;5075475;28;19927;-56
2022/06/17 07:05:49;;;;;;;;;;;26.00;95.70;;;;;;5079524;28;19912;-56
2022/06/17 07:08:16;;;;;;;;;;;26.20;93.80;;;;;;5075438;28;20442;-55
2022/06/17 07:10:42;;;;;;;;;;;25.90;93.90;;;;;;5079986;28;19923;-55
2022/06/17 07:13:08;;;;;;;;;;;25.80;94.40;;;;;;5074687;28;19920;-56
2022/06/17 07:15:34;;;;;;;;;;;25.70;93.30;;;;;;5084034;28;20311;-56
2022/06/17 07:18:02;;;;;;;;;;;25.90;93.40;;;;;;5078318;28;19924;-56
2022/06/17 07:20:31;;;;;;;;;;;26.10;93.20;;;;;;5074177;28;20116;-56
2022/06/17 07:22:57;;;;;;;;;;;26.50;93.20;;;;;;5073411;28;20011;-56
2022/06/17 07:25:22;;;;;;;;;;;27.00;91.80;;;;;;5073832;28;20023;-56
2022/06/17 07:27:48;;;;;;;;;;;27.20;91.10;;;;;;5076605;28;19917;-56
2022/06/17 07:30:15;;;;;;;;;;;26.70;90.70;;;;;;5077976;28;19928;-55
2022/06/17 07:32:40;;;;;;;;;;;26.80;90.90;;;;;;5086399;28;19913;-55
2022/06/17 07:35:06;;;;;;;;;;;27.00;90.40;;;;;;5086354;28;19912;-55
2022/06/17 07:40:15;;;;;;;;;;;26.80;90.50;;;;;;5077919;28;20447;-56
2022/06/17 07:42:41;;;;;;;;;;;26.80;90.50;;;;;;5071957;28;20003;-56
2022/06/17 07:45:08;;;;;;;;;;;26.50;90.80;;;;;;5082912;28;19922;-55
2022/06/17 07:47:34;;;;;;;;;;;26.50;91.80;;;;;;5086216;28;19916;-55
2022/06/17 07:49:59;;;;;;;;;;;26.60;91.10;;;;;;5097844;28;19915;-54
2022/06/17 07:52:25;;;;;;;;;;;26.40;91.50;;;;;;5087883;28;19919;-53
2022/06/17 07:54:51;;;;;;;;;;;26.30;92.30;;;;;;5080200;28;19917;-55
2022/06/17 07:57:16;;;;;;;;;;;26.50;91.00;;;;;;5087382;28;20379;-55
2022/06/17 07:59:42;;;;;;;;;;;27.00;90.60;;;;;;5076928;28;20464;-55
2022/06/17 08:02:07;;;;;;;;;;;26.50;90.10;;;;;;5077142;28;19920;-55
2022/06/17 08:04:34;;;;;;;;;;;26.90;88.90;;;;;;5079030;28;19924;-56
2022/06/17 08:07:00;;;;;;;;;;;27.20;88.70;;;;;;5074643;28;19916;-56
2022/06/17 08:09:26;;;;;;;;;;;27.00;87.70;;;;;;5073657;28;19962;-56
2022/06/17 08:11:51;;;;;;;;;;;27.00;86.70;;;;;;5072750;28;19917;-56
2022/06/17 08:14:17;;;;;;;;;;;27.10;86.60;;;;;;5073894;28;20450;-56
2022/06/17 08:16:42;;;;;;;;;;;26.80;88.90;;;;;;5075909;28;20323;-56
2022/06/17 08:19:09;;;;;;;;;;;27.80;86.10;;;;;;5078781;28;19920;-56
2022/06/17 08:21:34;;;;;;;;;;;27.50;86.50;;;;;;5079873;28;19923;-56
2022/06/17 08:24:00;;;;;;;;;;;27.70;84.90;;;;;;5089187;28;19995;-53
2022/06/17 08:26:26;;;;;;;;;;;28.50;83.10;;;;;;5073157;28;19946;-53
2022/06/17 08:28:51;;;;;;;;;;;29.00;81.60;;;;;;5082196;28;20369;-55
2022/06/17 08:31:17;;;;;;;;;;;29.10;80.20;;;;;;5081605;28;20433;-54
2022/06/17 08:33:42;;;;;;;;;;;28.60;79.90;;;;;;5071482;28;19913;-54
2022/06/17 08:36:10;;;;;;;;;;;28.10;82.70;;;;;;5074378;28;19935;-54
2022/06/17 08:38:38;;;;;;;;;;;28.80;83.70;;;;;;5086150;28;19924;-55
2022/06/17 08:41:04;;;;;;;;;;;28.90;79.10;;;;;;5081087;28;19916;-54
2022/06/17 08:43:49;;;;;;;;;;;28.30;79.90;;;;;;5081241;28;19912;-55
2022/06/17 08:46:20;;;;;;;;;;;28.20;81.30;;;;;;5074272;28;19916;-56
2022/06/17 08:49:04;;;;;;;;;;;28.50;81.40;;;;;;5082890;28;20276;-56
2022/06/17 08:51:48;;;;;;;;;;;29.40;79.20;;;;;;5076768;28;19923;-56
2022/06/17 08:54:32;;;;;;;;;;;29.50;78.10;;;;;;5083279;28;19912;-56
2022/06/17 08:57:04;;;;;;;;;;;29.60;76.50;;;;;;5082047;28;20288;-56
2022/06/17 08:59:32;;;;;;;;;;;29.20;77.30;;;;;;5082406;28;20442;-55
2022/06/17 09:02:05;;;;;;;;;;;29.40;79.20;;;;;;5080515;28;19912;-55
2022/06/17 09:04:34;;;;;;;;;;;29.60;78.50;;;;;;5081129;28;20316;-55
2022/06/17 09:07:18;;;;;;;;;;;30.40;76.20;;;;;;5085231;28;20269;-56
2022/06/17 09:10:01;;;;;;;;;;;30.80;74.20;;;;;;5086146;28;19920;-55
2022/06/17 09:12:33;;;;;;;;;;;30.50;74.60;;;;;;5087638;28;19962;-56
2022/06/17 09:14:58;;;;;;;;;;;30.40;75.40;;;;;;5087037;28;19920;-55
2022/06/17 09:17:42;;;;;;;;;;;30.20;75.00;;;;;;5076192;28;19927;-55
2022/06/17 09:20:10;;;;;;;;;;;30.30;74.70;;;;;;5079875;28;20412;-55
2022/06/17 09:22:41;;;;;;;;;;;30.60;73.70;;;;;;5077814;28;19919;-55
2022/06/17 09:25:08;;;;;;;;;;;30.80;73.30;;;;;;5082142;28;19912;-55
2022/06/17 09:27:39;;;;;;;;;;;30.20;73.60;;;;;;5067321;28;19928;-55
2022/06/17 09:30:15;;;;;;;;;;;30.20;74.20;;;;;;5071018;28;20509;-55
2022/06/17 09:32:43;;;;;;;;;;;30.40;76.80;;;;;;5069106;28;20258;-56
2022/06/17 09:35:09;;;;;;;;;;;30.70;71.90;;;;;;5070889;28;20348;-56
2022/06/17 09:37:34;;;;;;;;;;;31.40;72.80;;;;;;5069834;28;19927;-55
2022/06/17 09:40:02;;;;;;;;;;;31.50;73.10;;;;;;5084520;28;20371;-56
2022/06/17 09:42:33;;;;;;;;;;;31.50;70.10;;;;;;5061605;28;20545;-55
2022/06/17 09:44:58;;;;;;;;;;;31.80;69.90;;;;;;5072167;28;19993;-55
2022/06/17 09:47:36;;;;;;;;;;;31.50;71.50;;;;;;5069570;28;20444;-55
2022/06/17 09:50:13;;;;;;;;;;;31.80;69.90;;;;;;5074349;28;20018;-56
2022/06/17 09:52:59;;;;;;;;;;;32.00;70.10;;;;;;5069628;28;20288;-56
2022/06/17 09:55:36;;;;;;;;;;;31.90;66.50;;;;;;5077161;28;20030;-56
2022/06/17 09:58:09;;;;;;;;;;;31.20;68.10;;;;;;5073624;28;19931;-55
2022/06/17 10:00:46;;;;;;;;;;;30.60;68.80;;;;;;5069885;28;19917;-55
2022/06/17 10:03:14;;;;;;;;;;;30.50;68.80;;;;;;5064630;28;20475;-55
2022/06/17 10:05:42;;;;;;;;;;;30.60;72.20;;;;;;5067879;28;19920;-55
2022/06/17 10:08:08;;;;;;;;;;;30.40;70.60;;;;;;5064433;28;19916;-55
2022/06/17 10:10:40;;;;;;;;;;;30.90;70.10;;;;;;5065432;28;19978;-55
2022/06/17 10:13:14;;;;;;;;;;;31.50;67.20;;;;;;5070064;28;19959;-55
2022/06/17 10:18:53;;;;;;;;;;;31.40;67.50;;;;;;5068604;28;19946;-55
2022/06/17 10:21:33;;;;;;;;;;;31.50;67.30;;;;;;5059057;28;19920;-55
2022/06/17 10:24:04;;;;;;;;;;;31.60;68.80;;;;;;5065167;28;19920;-55
2022/06/17 10:26:49;;;;;;;;;;;32.00;67.20;;;;;;5064257;28;19916;-55
2022/06/17 10:29:23;;;;;;;;;;;32.40;65.50;;;;;;5065352;28;19917;-54
2022/06/17 10:31:51;;;;;;;;;;;32.40;64.20;;;;;;5067722;28;19978;-55
2022/06/17 10:34:19;;;;;;;;;;;32.10;66.10;;;;;;5067242;28;20050;-56
2022/06/17 10:36:45;;;;;;;;;;;31.70;63.60;;;;;;5070729;28;20015;-54
2022/06/17 10:39:13;;;;;;;;;;;31.80;65.40;;;;;;5065939;28;20129;-55
2022/06/17 10:41:39;;;;;;;;;;;32.30;63.40;;;;;;5069649;28;20340;-55
2022/06/17 10:44:09;;;;;;;;;;;32.10;61.70;;;;;;5071046;28;19917;-55
2022/06/17 10:46:38;;;;;;;;;;;31.70;62.40;;;;;;5070500;28;20379;-56
2022/06/17 10:49:16;;;;;;;;;;;31.60;61.90;;;;;;5068029;28;19950;-54
2022/06/17 10:51:43;;;;;;;;;;;31.00;63.30;;;;;;5073785;28;20374;-55
2022/06/17 10:54:15;;;;;;;;;;;31.50;65.40;;;;;;5074401;28;19960;-55
2022/06/17 10:56:43;;;;;;;;;;;32.00;61.90;;;;;;5070285;28;19916;-55
2022/06/17 10:59:10;;;;;;;;;;;32.00;61.50;;;;;;5075357;28;20021;-55
2022/06/17 11:01:45;;;;;;;;;;;32.80;62.20;;;;;;5074657;28;19916;-55
2022/06/17 11:04:12;;;;;;;;;;;33.10;62.40;;;;;;5063985;28;19920;-54
2022/06/17 11:06:58;;;;;;;;;;;32.50;61.40;;;;;;5072053;28;19926;-54
2022/06/17 11:09:25;;;;;;;;;;;31.40;63.40;;;;;;5058935;28;19920;-54
2022/06/17 11:12:04;;;;;;;;;;;31.00;64.40;;;;;;5066409;28;19916;-54
2022/06/17 11:14:35;;;;;;;;;;;31.10;64.90;;;;;;5068747;28;20301;-55
2022/06/17 11:17:01;;;;;;;;;;;31.70;66.20;;;;;;5069544;28;19947;-55
2022/06/17 11:19:27;;;;;;;;;;;31.90;64.20;;;;;;5078454;28;19920;-55
2022/06/17 11:21:54;;;;;;;;;;;31.50;65.80;;;;;;5076970;28;19912;-55
2022/06/17 11:24:22;;;;;;;;;;;31.80;63.80;;;;;;5076060;28;20400;-55
2022/06/17 11:27:06;;;;;;;;;;;31.60;64.60;;;;;;5072770;28;19927;-55
2022/06/17 11:29:40;;;;;;;;;;;31.60;63.60;;;;;;5073739;28;19960;-54
2022/06/17 11:32:22;;;;;;;;;;;31.50;64.90;;;;;;5075483;28;20440;-54
2022/06/17 11:34:59;;;;;;;;;;;31.70;65.50;;;;;;5079001;28;20327;-55
2022/06/17 11:37:34;;;;;;;;;;;31.80;65.40;;;;;;5088286;28;19920;-55
2022/06/17 11:40:14;;;;;;;;;;;32.30;63.70;;;;;;5072267;28;19921;-55
2022/06/17 11:42:44;;;;;;;;;;;32.30;63.30;;;;;;5065973;28;20296;-55
2022/06/17 11:45:15;;;;;;;;;;;32.30;63.50;;;;;;5063014;28;19989;-55
2022/06/17 11:47:43;;;;;;;;;;;32.50;63.70;;;;;;5070662;28;19912;-56
2022/06/17 11:50:16;;;;;;;;;;;33.20;61.90;;;;;;5068899;28;19913;-55
2022/06/17 11:52:42;;;;;;;;;;;33.30;62.60;;;;;;5068338;28;19930;-55
2022/06/17 11:55:09;;;;;;;;;;;33.20;61.00;;;;;;5081764;28;20377;-55
2022/06/17 11:57:36;;;;;;;;;;;33.40;62.20;;;;;;5072577;28;20751;-55
2022/06/17 12:00:07;;;;;;;;;;;33.40;60.90;;;;;;5073649;28;20404;-56
2022/06/17 12:02:32;;;;;;;;;;;33.60;61.20;;;;;;5070646;28;19935;-55
2022/06/17 12:05:30;;;;;;;;;;;33.80;60.80;;;;;;5072144;28;19920;-55
2022/06/17 12:08:04;;;;;;;;;;;33.80;59.80;;;;;;5048363;28;20202;-56
2022/06/17 12:10:52;;;;;;;;;;;33.50;61.10;;;;;;5071176;28;20060;-54
2022/06/17 12:13:24;;;;;;;;;;;33.50;60.40;;;;;;5067938;28;20447;-55
2022/06/17 12:15:55;;;;;;;;;;;33.70;60.10;;;;;;5076624;28;19931;-55
2022/06/17 12:18:21;;;;;;;;;;;33.70;59.80;;;;;;5077367;28;19930;-55
2022/06/17 12:20:50;;;;;;;;;;;33.30;59.60;;;;;;5068599;28;19920;-56
2022/06/17 12:23:25;;;;;;;;;;;33.40;59.50;;;;;;5070791;28;19955;-55
2022/06/17 12:25:55;;;;;;;;;;;33.10;60.00;;;;;;5071103;28;20054;-55
2022/06/17 12:28:39;;;;;;;;;;;33.30;61.50;;;;;;5067206;28;20308;-56
2022/06/17 12:31:07;;;;;;;;;;;33.30;60.90;;;;;;5077431;28;20023;-56
2022/06/17 12:33:46;;;;;;;;;;;33.40;59.90;;;;;;5065866;28;19920;-55
2022/06/17 12:36:15;;;;;;;;;;;33.80;60.00;;;;;;5066105;28;19915;-55
2022/06/17 12:38:47;;;;;;;;;;;33.70;57.00;;;;;;5079312;28;19935;-55
2022/06/17 12:41:17;;;;;;;;;;;33.40;58.30;;;;;;5077995;28;19924;-56
2022/06/17 12:43:52;;;;;;;;;;;33.50;58.80;;;;;;5074251;28;19955;-55
2022/06/17 12:46:36;;;;;;;;;;;33.60;58.10;;;;;;5080819;28;20368;-55
2022/06/17 12:53:14;;;;;;;;;;;33.00;58.80;;;;;;5066038;28;20195;-55
2022/06/17 12:55:03;;;;;;;;;;;32.90;58.50;;;;;;5073121;28;20001;-57
2022/06/17 12:57:33;;;;;;;;;;;33.20;59.10;;;;;;5063189;28;19920;-55
2022/06/17 13:00:07;;;;;;;;;;;32.60;59.20;;;;;;5066330;28;19927;-55
2022/06/17 13:02:41;;;;;;;;;;;32.60;60.00;;;;;;5074110;28;19912;-55
2022/06/17 13:05:25;;;;;;;;;;;32.90;59.70;;;;;;5072849;28;19912;-55
2022/06/17 13:08:00;;;;;;;;;;;32.80;59.40;;;;;;5076115;28;20467;-55
2022/06/17 13:10:44;;;;;;;;;;;33.30;58.30;;;;;;5069270;28;20406;-55
2022/06/17 13:13:24;;;;;;;;;;;32.80;58.60;;;;;;5097053;28;19918;-55
2022/06/17 13:15:55;;;;;;;;;;;33.10;59.00;;;;;;5084983;28;19920;-54
2022/06/17 13:18:24;;;;;;;;;;;33.40;59.30;;;;;;5085303;28;19916;-56
2022/06/17 13:20:54;;;;;;;;;;;34.00;58.50;;;;;;5081582;28;19919;-56
2022/06/17 13:23:28;;;;;;;;;;;33.80;57.90;;;;;;5078057;28;19931;-55
2022/06/17 13:26:06;;;;;;;;;;;33.80;59.10;;;;;;5076946;28;19962;-55
2022/06/17 13:28:49;;;;;;;;;;;33.80;60.40;;;;;;5081160;28;19916;-55
2022/06/17 13:31:17;;;;;;;;;;;34.10;58.70;;;;;;5073232;28;20440;-56
2022/06/17 13:33:48;;;;;;;;;;;34.00;58.50;;;;;;5076536;28;19919;-55
2022/06/17 13:36:16;;;;;;;;;;;33.30;58.30;;;;;;5080590;28;19920;-55
2022/06/17 13:38:43;;;;;;;;;;;32.80;58.40;;;;;;5084526;28;20188;-55
2022/06/17 13:41:19;;;;;;;;;;;32.80;58.30;;;;;;5079813;28;19924;-55
2022/06/17 13:44:10;;;;;;;;;;;32.70;58.40;;;;;;5083746;28;19912;-55
2022/06/17 13:47:02;;;;;;;;;;;32.90;59.80;;;;;;5081826;28;21338;-56
2022/06/17 13:49:34;;;;;;;;;;;33.10;60.50;;;;;;5082548;28;19912;-56
2022/06/17 13:52:03;;;;;;;;;;;32.80;58.60;;;;;;5075106;28;20348;-55
2022/06/17 13:54:55;;;;;;;;;;;32.90;60.70;;;;;;5085896;28;19920;-56
2022/06/17 13:57:20;;;;;;;;;;;33.50;59.30;;;;;;5070818;28;19948;-55
2022/06/17 13:59:51;;;;;;;;;;;34.00;59.10;;;;;;5080220;28;20377;-55
2022/06/17 14:02:26;;;;;;;;;;;34.30;57.80;;;;;;5081293;28;19913;-56
2022/06/17 14:05:13;;;;;;;;;;;34.50;58.40;;;;;;5073737;28;19912;-55
2022/06/17 14:07:54;;;;;;;;;;;35.30;57.70;;;;;;5072518;28;20280;-55
2022/06/17 14:10:40;;;;;;;;;;;34.10;59.20;;;;;;5074158;28;20286;-55
2022/06/17 14:13:26;;;;;;;;;;;32.90;58.50;;;;;;5075845;28;19923;-55
2022/06/17 14:15:54;;;;;;;;;;;32.40;60.40;;;;;;5076398;28;19924;-55
2022/06/17 14:18:31;;;;;;;;;;;31.50;60.40;;;;;;5087532;28;20325;-55
2022/06/17 14:21:09;;;;;;;;;;;31.60;62.70;;;;;;5075593;28;19916;-55
2022/06/17 14:23:39;;;;;;;;;;;32.00;61.20;;;;;;5073911;28;19912;-55
2022/06/17 14:26:04;;;;;;;;;;;32.40;60.60;;;;;;5069245;28;19916;-55
2022/06/17 14:28:31;;;;;;;;;;;32.80;60.80;;;;;;5074312;28;19912;-55
2022/06/17 14:31:11;;;;;;;;;;;33.40;60.70;;;;;;5082009;28;19966;-55
2022/06/17 14:33:40;;;;;;;;;;;33.60;59.20;;;;;;5091153;28;20333;-55
2022/06/17 14:36:14;;;;;;;;;;;33.30;58.50;;;;;;5083922;28;19981;-55
2022/06/17 14:38:43;;;;;;;;;;;33.10;60.40;;;;;;5073571;28;19923;-55
2022/06/17 14:44:19;;;;;;;;;;;32.90;58.50;;;;;;5076371;28;19918;-54